Time;durP1;ratioP1;P1;durP2;ratioP2;P2;SDS_P1;SDS_P2;PMS_P1;PMS_P2;Temp;Humidity;BMP_temperature;BMP_pressure;BME280_temperature;BME280_humidity;BME280_pressure;Samples;Min_cycle;Max_cycle;Signal;HPM_P1;HPM_P2
2023/05/20 00:00:33;;;;;;;1.00;0.50;;;18.30;99.90;;;18.27;46.28;101793.72;4941981;27;126970;-50
2023/05/20 00:02:59;;;;;;;0.50;0.43;;;18.30;99.90;;;18.25;46.35;101795.63;4942973;27;113569;-58
2023/05/20 00:05:25;;;;;;;1.13;0.60;;;18.30;99.90;;;18.26;46.00;101789.34;4935830;27;99643;-45
2023/05/20 00:07:51;;;;;;;0.70;0.30;;;18.30;99.90;;;18.23;46.31;101794.84;4938442;27;100016;-45
2023/05/20 00:10:17;;;;;;;0.93;0.60;;;18.30;99.90;;;18.23;46.01;101786.81;4937625;27;97316;-49
2023/05/20 00:12:43;;;;;;;1.17;0.37;;;18.20;99.90;;;18.21;46.36;101786.88;4936188;27;99562;-47
2023/05/20 00:15:10;;;;;;;0.63;0.50;;;18.20;99.90;;;18.19;46.36;101791.44;4933078;27;113550;-54
2023/05/20 00:17:37;;;;;;;0.60;0.40;;;18.20;99.90;;;18.13;44.70;101792.59;4937374;27;98290;-47
2023/05/20 00:20:04;;;;;;;0.57;0.50;;;18.10;99.20;;;18.08;46.57;101794.66;4931461;27;98281;-45
2023/05/20 00:22:30;;;;;;;0.93;0.50;;;18.00;99.90;;;18.01;46.35;101790.53;4935362;27;98084;-46
2023/05/20 00:24:55;;;;;;;0.83;0.63;;;17.90;99.90;;;18.01;45.82;101793.22;4939038;27;99551;-48
2023/05/20 00:27:21;;;;;;;0.70;0.43;;;17.90;99.90;;;17.97;46.85;101794.31;4934871;27;116833;-47
2023/05/20 00:29:47;;;;;;;1.47;0.77;;;17.80;99.90;;;17.91;45.44;101789.25;4940560;27;108446;-49
2023/05/20 00:32:13;;;;;;;0.70;0.60;;;17.80;99.90;;;17.88;46.81;101797.41;4933166;27;97846;-46
2023/05/20 00:34:39;;;;;;;0.90;0.50;;;17.70;99.90;;;17.81;47.02;101793.31;4936003;27;98524;-46
2023/05/20 00:37:05;;;;;;;0.80;0.60;;;17.70;99.90;;;17.79;47.36;101787.16;4948331;27;100538;-45
2023/05/20 00:39:30;;;;;;;2.63;0.60;;;17.70;99.90;;;17.79;47.12;101798.72;4926769;27;254952;-48
2023/05/20 00:42:02;;;;;;;1.17;0.53;;;17.70;99.90;;;17.71;46.22;101790.22;4935401;27;102706;-46
2023/05/20 00:44:28;;;;;;;1.17;0.40;;;17.60;99.90;;;17.69;47.53;101796.56;4939278;27;98176;-48
2023/05/20 00:46:54;;;;;;;0.57;0.43;;;17.50;99.90;;;17.66;47.79;101786.00;4938121;27;99492;-46
2023/05/20 00:49:22;;;;;;;1.70;0.60;;;17.50;99.90;;;17.60;47.37;101788.94;4933294;27;109941;-47
2023/05/20 00:51:48;;;;;;;1.07;0.67;;;17.40;99.90;;;17.57;47.67;101781.09;4928855;27;99232;-48
2023/05/20 00:54:14;;;;;;;1.40;0.70;;;17.40;99.90;;;17.55;47.99;101784.69;4932485;27;101541;-49
2023/05/20 00:56:40;;;;;;;1.17;0.70;;;17.40;99.90;;;17.51;47.94;101785.78;4936613;27;100633;-45
2023/05/20 00:59:06;;;;;;;0.30;0.30;;;17.30;99.90;;;17.51;48.01;101785.78;4925088;27;97940;-51
2023/05/20 01:01:32;;;;;;;0.70;0.50;;;17.30;99.90;;;17.51;48.32;101783.13;4934025;27;99231;-45
2023/05/20 01:03:59;;;;;;;1.17;0.50;;;17.30;99.90;;;17.48;47.75;101772.56;4935901;27;97696;-49
2023/05/20 01:06:24;;;;;;;0.53;0.40;;;17.30;99.90;;;17.42;48.40;101767.53;4936329;27;116684;-46
2023/05/20 01:08:50;;;;;;;0.63;0.47;;;17.20;99.90;;;17.42;48.51;101767.53;4936904;27;97938;-46
2023/05/20 01:11:34;;;;;;;0.60;0.40;;;17.20;99.90;;;17.40;48.50;101764.09;4935697;27;100164;-46
2023/05/20 01:14:07;;;;;;;1.43;0.77;;;17.10;99.90;;;17.37;48.43;101764.22;4939218;27;101250;-50
2023/05/20 01:16:34;;;;;;;2.53;1.20;;;17.10;99.90;;;17.36;47.97;101767.84;4951623;27;104803;-45
2023/05/20 01:19:02;;;;;;;1.67;0.80;;;17.10;99.90;;;17.31;47.84;101764.50;4934622;27;97789;-47
2023/05/20 01:21:31;;;;;;;0.80;0.50;;;17.10;99.90;;;17.29;48.78;101758.38;4936931;27;97856;-46
2023/05/20 01:23:57;;;;;;;2.90;0.80;;;17.00;99.90;;;17.27;48.66;101762.91;4934419;27;97589;-46
2023/05/20 01:26:25;;;;;;;1.33;0.87;;;17.00;99.90;;;17.17;48.46;101766.94;4941565;27;103542;-47
2023/05/20 01:28:51;;;;;;;1.23;0.50;;;16.90;99.90;;;17.22;48.96;101765.81;4936129;27;97674;-46
2023/05/20 01:31:25;;;;;;;1.17;0.60;;;17.00;99.90;;;17.10;48.31;101757.50;4931047;27;108897;-46
2023/05/20 01:33:57;;;;;;;0.67;0.50;;;16.80;99.90;;;17.15;49.34;101766.13;4934633;27;97841;-48
2023/05/20 01:36:25;;;;;;;1.20;0.70;;;16.80;99.90;;;17.06;48.66;101755.88;4932141;27;105090;-46
2023/05/20 01:38:52;;;;;;;1.43;0.90;;;16.80;99.90;;;17.03;49.36;101753.38;4935456;27;99805;-46
2023/05/20 01:41:19;;;;;;;2.13;0.80;;;16.70;99.90;;;17.02;49.69;101754.28;4940504;27;100386;-46
2023/05/20 01:43:45;;;;;;;0.90;0.30;;;16.70;99.90;;;16.97;50.06;101753.66;4936754;27;98216;-45
2023/05/20 01:46:11;;;;;;;1.33;0.83;;;16.60;99.90;;;16.93;49.62;101751.13;4928304;27;98069;-45
2023/05/20 01:48:37;;;;;;;1.10;0.80;;;16.60;99.90;;;16.91;49.52;101752.97;4936404;27;98810;-45
2023/05/20 01:51:03;;;;;;;0.40;0.40;;;16.60;99.90;;;16.91;50.22;101752.97;4938208;27;98293;-47
2023/05/20 01:53:28;;;;;;;2.57;0.80;;;16.60;99.90;;;16.88;48.72;101750.44;4936307;27;100918;-46
2023/05/20 01:55:54;;;;;;;1.47;0.90;;;16.60;99.90;;;16.88;50.30;101747.78;4942829;27;99579;-46
2023/05/20 01:58:20;;;;;;;1.97;0.93;;;16.60;99.90;;;16.89;49.07;101749.50;4938917;27;121173;-46
2023/05/20 02:00:46;;;;;;;2.27;0.70;;;16.60;99.90;;;16.85;50.16;101745.25;4946783;27;101839;-45
2023/05/20 02:03:11;;;;;;;0.60;0.60;;;16.50;99.90;;;16.75;50.21;101743.94;4942037;27;97686;-48
2023/05/20 02:05:37;;;;;;;0.90;0.83;;;16.40;99.90;;;16.75;50.35;101746.59;4937858;27;101135;-49
2023/05/20 02:08:03;;;;;;;1.23;0.50;;;16.40;99.90;;;16.69;50.24;101744.22;4940606;27;123484;-47
2023/05/20 02:10:29;;;;;;;1.33;0.73;;;16.30;99.90;;;16.69;50.77;101741.56;4934195;27;97964;-46
2023/05/20 02:12:55;;;;;;;1.70;0.93;;;16.30;99.90;;;16.66;50.59;101733.66;4940979;27;101420;-49
2023/05/20 02:15:20;;;;;;;0.67;0.50;;;16.30;99.90;;;16.65;50.82;101742.59;4939316;27;98893;-47
2023/05/20 02:17:46;;;;;;;1.00;0.70;;;16.20;99.90;;;16.63;50.93;101736.44;4938679;27;116666;-47
2023/05/20 02:20:12;;;;;;;1.33;0.70;;;16.20;99.90;;;16.63;50.81;101741.78;4939216;27;97743;-46
2023/05/20 02:22:38;;;;;;;3.97;0.80;;;16.20;99.90;;;16.61;50.46;101740.97;4938460;27;97606;-47
2023/05/20 02:25:04;;;;;;;2.30;0.60;;;16.20;99.90;;;16.61;50.95;101741.84;4965669;27;130005;-45
2023/05/20 02:27:30;;;;;;;0.70;0.60;;;16.20;99.90;;;16.55;51.12;101731.47;4967220;27;98988;-45
2023/05/20 02:29:57;;;;;;;0.80;0.60;;;16.10;99.90;;;16.58;51.00;101730.47;4965607;27;97725;-46
2023/05/20 02:32:26;;;;;;;1.43;0.90;;;16.20;99.90;;;16.59;50.30;101734.84;4974689;27;111277;-46
2023/05/20 02:34:54;;;;;;;1.13;1.03;;;16.30;99.90;;;16.60;nan;101724.13;5144520;22;98669;-52
2023/05/20 02:37:19;;;;;;;0.83;0.63;;;16.30;99.90;;;16.62;51.15;101732.91;4966084;27;97771;-51
2023/05/20 02:39:45;;;;;;;1.83;0.87;;;16.30;99.90;;;16.63;50.22;101731.13;4985004;27;97073;-51
2023/05/20 02:42:11;;;;;;;0.53;0.53;;;16.30;99.90;;;16.61;50.44;101725.00;4990869;27;100037;-54
2023/05/20 02:44:37;;;;;;;0.70;0.70;;;16.30;99.90;;;16.48;48.80;101724.66;4986111;27;99124;-54
2023/05/20 02:47:03;;;;;;;1.40;0.90;;;16.10;99.90;;;16.49;50.67;101731.75;4988767;27;115042;-54
2023/05/20 02:49:28;;;;;;;1.07;0.77;;;16.10;99.90;;;16.49;51.38;101725.53;4982615;27;107485;-50
2023/05/20 02:51:54;;;;;;;1.60;0.53;;;16.10;99.90;;;16.46;51.20;101723.00;4992696;27;113308;-53
2023/05/20 02:54:20;;;;;;;1.77;1.10;;;16.10;99.90;;;16.46;50.30;101725.66;4985633;27;98002;-54
2023/05/20 02:56:46;;;;;;;1.00;0.90;;;16.10;99.90;;;16.45;49.50;101721.28;4987872;27;118898;-54
2023/05/20 02:59:11;;;;;;;1.40;0.50;;;16.10;99.90;;;16.53;51.26;101716.50;4987020;27;97270;-56
2023/05/20 03:01:39;;;;;;;0.97;0.33;;;16.20;99.90;;;16.59;51.42;101716.22;4990583;27;97181;-52
2023/05/20 03:04:05;;;;;;;1.37;0.80;;;16.30;99.90;;;16.66;51.11;101717.69;4980451;27;104526;-55
2023/05/20 03:06:31;;;;;;;1.70;0.97;;;16.40;99.90;;;16.67;50.55;101708.78;4991281;27;98228;-49
2023/05/20 03:08:57;;;;;;;0.33;0.27;;;16.40;99.90;;;16.71;51.02;101707.72;4975001;27;178232;-54
2023/05/20 03:11:27;;;;;;;0.80;0.60;;;16.40;99.90;;;16.73;50.69;101707.63;4974637;27;265816;-56
2023/05/20 03:13:52;;;;;;;0.60;0.53;;;16.40;99.90;;;16.70;51.16;101703.31;4966533;28;281059;-52
2023/05/20 03:16:18;;;;;;;1.50;0.83;;;16.40;99.90;;;16.73;50.81;101703.19;4984354;27;223166;-48
2023/05/20 03:18:45;;;;;;;2.53;1.20;;;16.40;99.90;;;16.69;50.03;101696.25;4991326;27;97606;-50
2023/05/20 03:21:10;;;;;;;0.80;0.50;;;16.40;99.90;;;16.72;51.07;101700.59;4988261;27;107985;-50
2023/05/20 03:23:36;;;;;;;1.87;0.63;;;16.40;99.90;;;16.69;50.47;101701.59;4990532;27;97950;-52
2023/05/20 03:26:02;;;;;;;0.70;0.70;;;16.30;99.90;;;16.63;49.88;101699.16;4991417;27;118053;-54
2023/05/20 03:28:27;;;;;;;2.20;0.90;;;16.20;99.90;;;16.70;50.83;101708.66;4985040;27;108218;-55
2023/05/20 03:30:53;;;;;;;1.47;0.70;;;16.30;99.90;;;16.71;50.97;101709.50;4987650;27;102692;-53
2023/05/20 03:33:19;;;;;;;1.93;1.07;;;16.40;99.90;;;16.78;50.74;101706.53;4986472;27;97491;-52
2023/05/20 03:35:45;;;;;;;0.90;0.70;;;16.50;99.90;;;16.75;50.80;101701.31;4983781;27;97386;-53
2023/05/20 03:38:11;;;;;;;2.27;0.80;;;16.40;99.90;;;16.77;50.59;101704.75;4984320;27;114222;-53
2023/05/20 03:40:37;;;;;;;1.50;0.73;;;16.50;99.90;;;16.79;50.71;101705.59;4988464;27;97678;-49
2023/05/20 03:43:02;;;;;;;0.67;0.40;;;16.50;99.90;;;16.86;50.80;101709.69;4982527;27;106181;-53
2023/05/20 03:45:28;;;;;;;1.00;0.90;;;16.60;99.90;;;16.85;50.16;101713.28;4987260;27;120463;-52
2023/05/20 03:47:54;;;;;;;1.80;0.60;;;16.60;99.90;;;16.82;50.65;101700.09;4987571;27;97627;-51
2023/05/20 03:50:20;;;;;;;0.50;0.50;;;16.50;99.90;;;16.76;50.58;101702.16;4985646;27;97362;-53
2023/05/20 03:52:45;;;;;;;0.40;0.40;;;16.40;99.90;;;16.68;51.14;101704.31;4986180;27;113996;-53
2023/05/20 03:55:11;;;;;;;0.93;0.93;;;16.30;99.90;;;16.61;48.82;101701.03;4984360;27;97505;-54
2023/05/20 03:57:37;;;;;;;1.47;1.03;;;16.30;99.90;;;16.45;49.26;101707.94;4987209;27;97628;-50
2023/05/20 04:00:10;;;;;;;1.20;1.10;;;16.00;99.90;;;16.49;48.81;101704.22;4987142;27;97424;-53
2023/05/20 04:02:37;;;;;;;1.20;0.90;;;16.10;99.90;;;16.45;51.70;101702.63;4984770;27;103497;-51
2023/05/20 04:05:03;;;;;;;1.90;0.40;;;16.00;99.90;;;16.42;51.86;101698.31;4987569;27;97540;-53
2023/05/20 04:07:29;;;;;;;1.10;0.63;;;16.00;99.90;;;16.43;50.94;101699.16;4975512;27;97653;-54
2023/05/20 04:09:55;;;;;;;1.33;0.60;;;16.00;99.90;;;16.49;51.71;101693.56;4981460;27;109486;-55
2023/05/20 04:12:21;;;;;;;0.87;0.67;;;16.10;99.90;;;16.48;51.58;101703.34;4994683;27;97601;-55
2023/05/20 04:14:48;;;;;;;1.17;0.90;;;16.20;99.90;;;16.40;51.77;101691.31;4993837;27;97471;-54
2023/05/20 04:17:14;;;;;;;1.37;1.10;;;16.00;99.90;;;16.33;49.93;101688.91;4996676;27;97302;-53
2023/05/20 04:19:40;;;;;;;0.90;0.80;;;15.90;99.90;;;16.30;51.42;101689.03;4994577;27;97911;-51
2023/05/20 04:22:06;;;;;;;1.80;1.17;;;15.90;99.90;;;16.29;51.60;101687.31;4991029;27;105122;-53
2023/05/20 04:24:31;;;;;;;0.80;0.63;;;15.90;99.90;;;16.38;51.67;101693.19;4989258;27;122653;-48
2023/05/20 04:26:57;;;;;;;0.80;0.50;;;16.10;99.90;;;16.50;51.36;101690.00;4987961;27;106689;-52
2023/05/20 04:29:23;;;;;;;2.20;0.73;;;16.40;99.90;;;16.67;51.15;101682.16;4986431;27;97761;-54
2023/05/20 04:31:49;;;;;;;0.80;0.60;;;16.60;99.90;;;16.78;50.83;101679.88;4984106;27;115436;-49
2023/05/20 04:34:18;;;;;;;1.50;0.90;;;16.80;99.90;;;16.88;50.54;101689.16;5003470;27;97529;-49
2023/05/20 04:36:44;;;;;;;2.30;1.37;;;17.00;99.90;;;17.03;48.46;101690.25;4991673;27;97529;-51
2023/05/20 04:39:10;;;;;;;0.83;0.83;;;17.10;99.90;;;17.07;48.87;101689.19;4996400;27;97540;-52
2023/05/20 04:41:36;;;;;;;0.70;0.50;;;17.10;99.90;;;17.15;49.74;101688.81;4996548;27;104938;-56
2023/05/20 04:44:02;;;;;;;0.60;0.60;;;17.10;99.90;;;17.19;49.39;101687.72;4991220;27;97897;-49
2023/05/20 04:46:28;;;;;;;0.93;0.60;;;17.10;99.90;;;17.25;49.51;101680.34;4998581;27;97498;-47
2023/05/20 04:48:54;;;;;;;1.10;0.60;;;17.20;99.90;;;17.27;49.33;101679.38;4935873;27;1023847;-46
2023/05/20 04:51:20;;;;;;;1.13;0.50;;;17.30;99.90;;;17.30;49.38;101677.44;4959067;27;279013;-54
2023/05/20 04:53:46;;;;;;;0.50;0.50;;;17.40;99.90;;;17.36;49.30;101682.50;4987176;27;126370;-51
2023/05/20 04:56:12;;;;;;;0.87;0.47;;;17.40;99.90;;;17.38;49.07;101683.28;4986700;27;97983;-56
2023/05/20 04:58:38;;;;;;;0.67;0.43;;;17.50;99.90;;;17.33;49.19;101689.75;4988578;27;109328;-55
2023/05/20 05:01:04;;;;;;;1.73;1.23;;;17.50;99.90;;;17.51;48.76;101686.22;4988765;27;98006;-57
2023/05/20 05:03:30;;;;;;;1.43;0.97;;;17.60;99.90;;;17.58;48.97;101687.66;4995081;27;98489;-52
2023/05/20 05:05:57;;;;;;;2.43;0.60;;;17.70;99.90;;;17.60;48.62;101684.91;4994747;27;97501;-44
2023/05/20 05:08:25;;;;;;;1.60;1.33;;;17.60;99.90;;;17.55;48.23;101694.00;5005886;27;97647;-52
2023/05/20 05:10:51;;;;;;;0.93;0.43;;;17.60;99.90;;;17.52;48.80;101691.50;4998838;27;98102;-44
2023/05/20 05:13:17;;;;;;;2.07;0.80;;;17.60;99.90;;;17.67;48.38;101697.88;5002048;27;97416;-44
2023/05/20 05:15:43;;;;;;;1.43;0.83;;;17.70;99.90;;;17.61;48.28;101686.63;4996323;27;97326;-55
2023/05/20 05:18:09;;;;;;;0.60;0.50;;;17.80;99.90;;;17.68;48.37;101696.06;4996337;27;97704;-53
2023/05/20 05:20:35;;;;;;;1.00;0.77;;;17.80;99.90;;;17.73;48.15;101686.94;4989713;27;112468;-52
2023/05/20 05:23:00;;;;;;;1.00;0.60;;;17.80;99.90;;;17.74;48.24;101683.31;4996156;27;97565;-51
2023/05/20 05:25:26;;;;;;;0.90;0.60;;;17.80;99.90;;;17.75;48.24;101685.03;4995322;27;97437;-50
2023/05/20 05:27:54;;;;;;;0.93;0.53;;;17.90;99.90;;;17.74;48.23;101683.31;5002845;27;97343;-54
2023/05/20 05:30:20;;;;;;;0.77;0.50;;;17.90;99.90;;;17.74;48.18;101682.44;4999920;27;98138;-51
2023/05/20 05:32:47;;;;;;;0.67;0.60;;;17.90;99.90;;;17.77;47.01;101687.63;4999600;27;98194;-53
2023/05/20 05:35:12;;;;;;;0.50;0.50;;;17.90;99.90;;;17.77;48.22;101676.97;4992773;27;97342;-51
2023/05/20 05:37:38;;;;;;;1.23;0.83;;;17.90;99.90;;;17.83;48.03;101682.88;4995593;27;97313;-57
2023/05/20 05:40:05;;;;;;;1.17;0.80;;;17.90;99.90;;;17.82;47.78;101666.94;5014183;27;98596;-56
2023/05/20 05:42:31;;;;;;;1.37;0.70;;;18.00;99.90;;;17.71;48.02;101666.59;4998955;27;97440;-57
2023/05/20 05:44:57;;;;;;;0.93;0.70;;;17.90;99.90;;;17.87;47.86;101662.22;4995227;27;97478;-54
2023/05/20 05:47:23;;;;;;;1.20;0.60;;;18.00;99.90;;;17.74;47.89;101672.63;4995017;27;98544;-55
2023/05/20 05:50:01;;;;;;;0.60;0.53;;;18.00;99.90;;;17.78;47.97;101663.53;4762654;27;5088108;-50
2023/05/20 05:52:48;;;;;;;2.50;0.77;;;18.00;99.90;;;17.74;47.88;101661.97;4847680;27;1693515;-54
2023/05/20 05:55:37;;;;;;;1.40;0.60;;;17.90;99.90;;;17.88;47.87;101658.63;4826823;27;1570270;-56
2023/05/20 05:58:13;;;;;;;1.60;0.77;;;18.00;99.90;;;17.84;47.56;101651.72;4937911;27;405186;-53
2023/05/20 06:00:38;;;;;;;1.40;1.03;;;18.00;99.90;;;17.79;47.75;101648.38;4984525;27;96960;-49
2023/05/20 06:03:04;;;;;;;2.40;1.17;;;17.90;99.90;;;17.71;48.17;101647.91;4990144;27;101027;-55
2023/05/20 06:05:31;;;;;;;0.77;0.50;;;17.90;99.90;;;17.74;48.08;101650.44;4983574;27;97704;-52
2023/05/20 06:07:56;;;;;;;1.37;0.70;;;17.90;99.90;;;17.84;47.46;101651.72;4989168;27;97458;-55
2023/05/20 06:10:22;;;;;;;0.90;0.50;;;18.00;99.90;;;17.75;48.23;101654.81;4987501;27;97650;-52
2023/05/20 06:12:48;;;;;;;0.97;0.70;;;17.90;99.90;;;17.76;48.16;101643.22;4990813;27;97621;-52
2023/05/20 06:15:14;;;;;;;4.73;0.90;;;17.90;99.90;;;17.79;48.01;101645.72;4989678;27;98139;-52
2023/05/20 06:17:40;;;;;;;2.20;1.10;;;18.00;99.90;;;17.86;47.76;101644.50;4993273;27;97256;-56
2023/05/20 06:20:06;;;;;;;0.83;0.57;;;18.00;99.90;;;17.79;47.98;101654.63;4986861;27;97550;-51
2023/05/20 06:22:32;;;;;;;0.50;0.40;;;18.00;99.90;;;17.88;47.76;101642.59;4986620;27;97831;-57
2023/05/20 06:25:01;;;;;;;1.40;0.90;;;18.10;99.90;;;17.85;48.16;101642.75;4988931;27;110563;-49
2023/05/20 06:27:27;;;;;;;3.27;1.07;;;18.10;99.90;;;17.91;47.85;101645.09;4809922;27;5098942;-53
2023/05/20 06:29:53;;;;;;;1.43;0.83;;;18.10;99.90;;;17.70;47.93;101639.06;4994022;27;97625;-47
2023/05/20 06:32:19;;;;;;;2.17;0.80;;;18.00;99.90;;;17.74;48.30;101639.75;4993800;27;98230;-55
2023/05/20 06:34:44;;;;;;;0.77;0.63;;;18.00;99.90;;;17.71;48.59;101637.25;4993470;27;99161;-54
2023/05/20 06:37:10;;;;;;;1.47;0.90;;;17.90;99.90;;;17.53;48.76;101647.88;4987715;27;97723;-52
2023/05/20 06:39:37;;;;;;;0.80;0.80;;;17.90;99.90;;;17.67;48.48;101649.00;4981865;27;97392;-52
2023/05/20 06:42:03;;;;;;;0.90;0.80;;;17.90;99.90;;;17.79;47.96;101646.63;4990802;27;98342;-54
2023/05/20 06:44:30;;;;;;;1.47;1.10;;;18.00;99.90;;;17.95;47.71;101649.38;4991007;27;104027;-50
2023/05/20 06:46:56;;;;;;;1.83;1.03;;;18.10;99.90;;;17.95;47.96;101649.38;4993344;27;97777;-51
2023/05/20 06:49:22;;;;;;;1.97;1.30;;;18.10;99.90;;;17.98;48.82;101643.88;4985168;27;105482;-55
2023/05/20 06:51:49;;;;;;;1.60;0.90;;;18.10;99.90;;;17.84;48.05;101643.69;4990381;27;97752;-52
2023/05/20 06:54:15;;;;;;;1.67;1.00;;;18.10;99.90;;;17.96;48.08;101644.91;4983470;27;97812;-56
2023/05/20 06:56:40;;;;;;;1.47;0.80;;;18.10;99.90;;;18.00;47.80;101650.00;4987577;27;98166;-46
2023/05/20 06:59:06;;;;;;;3.60;0.87;;;18.10;99.90;;;18.00;47.59;101643.78;4986628;27;105840;-52
2023/05/20 07:01:32;;;;;;;2.83;0.93;;;18.10;99.90;;;18.00;47.85;101647.31;4986940;27;97546;-55
2023/05/20 07:03:58;;;;;;;2.17;1.07;;;18.20;99.90;;;18.06;47.55;101640.78;4979328;27;125437;-53
2023/05/20 07:06:23;;;;;;;1.37;0.80;;;18.20;99.90;;;18.03;47.63;101644.50;4985724;27;99729;-52
2023/05/20 07:08:49;;;;;;;1.60;0.80;;;18.20;99.90;;;17.95;47.84;101644.03;4979159;27;97484;-49
2023/05/20 07:11:15;;;;;;;0.70;0.67;;;18.20;99.90;;;17.82;48.25;101637.59;4988005;27;97540;-52
2023/05/20 07:13:41;;;;;;;0.77;0.70;;;18.10;99.90;;;17.80;48.18;101639.47;4981475;27;119030;-53
2023/05/20 07:16:06;;;;;;;1.20;0.80;;;18.10;99.90;;;17.70;48.33;101641.72;4986846;27;97571;-53
2023/05/20 07:18:32;;;;;;;0.77;0.53;;;18.00;99.90;;;17.69;48.59;101631.13;4986221;27;97425;-51
2023/05/20 07:20:58;;;;;;;1.00;0.87;;;18.00;99.90;;;17.61;48.67;101630.59;4982983;27;98110;-53
2023/05/20 07:23:24;;;;;;;1.00;0.90;;;17.90;99.90;;;17.77;48.59;101628.94;4988164;27;97856;-59
2023/05/20 07:25:52;;;;;;;4.03;1.23;;;18.00;99.90;;;17.96;48.29;101621.72;4981252;27;97436;-53
2023/05/20 07:28:20;;;;;;;2.10;1.30;;;18.10;99.90;;;18.04;49.25;101626.66;4990601;27;97438;-51
2023/05/20 07:30:48;;;;;;;1.60;0.93;;;18.20;99.90;;;18.08;47.84;101622.88;4989108;27;97262;-52
2023/05/20 07:33:16;;;;;;;1.53;0.67;;;18.20;99.90;;;18.08;47.61;101623.78;4984058;27;97457;-50
2023/05/20 07:35:43;;;;;;;1.50;0.90;;;18.30;99.90;;;17.90;48.16;101616.69;4990872;27;97583;-53
2023/05/20 07:38:11;;;;;;;1.37;0.90;;;18.20;99.90;;;17.79;48.62;101611.03;4988455;27;97552;-56
2023/05/20 07:40:39;;;;;;;0.70;0.67;;;18.10;99.90;;;17.74;48.52;101618.41;4988944;27;98899;-54
2023/05/20 07:43:07;;;;;;;1.87;1.17;;;18.00;99.90;;;17.80;48.40;101610.97;4988656;27;98311;-56
2023/05/20 07:45:35;;;;;;;2.63;0.80;;;18.10;99.90;;;17.82;48.58;101616.22;4953018;27;99644;-54
2023/05/20 07:48:02;;;;;;;1.37;0.80;;;18.10;99.90;;;17.74;48.54;101610.41;4961601;27;99835;-43
2023/05/20 07:50:27;;;;;;;2.63;0.90;;;18.10;99.90;;;17.80;48.37;101613.66;4956277;27;98017;-56
2023/05/20 07:52:53;;;;;;;2.50;1.00;;;18.10;99.90;;;17.86;48.65;101612.47;4953244;27;123125;-48
2023/05/20 07:55:19;;;;;;;3.17;1.07;;;18.10;99.90;;;17.70;48.74;101609.69;4955218;27;111884;-43
2023/05/20 07:57:45;;;;;;;1.53;0.90;;;18.00;99.90;;;17.68;49.06;101613.38;4949698;27;97670;-43
2023/05/20 08:00:12;;;;;;;2.00;1.10;;;18.00;99.90;;;17.84;48.71;101620.53;4943052;27;99047;-42
2023/05/20 08:02:38;;;;;;;2.20;1.10;;;18.10;99.90;;;17.95;48.46;101617.34;4967261;27;99910;-55
2023/05/20 08:05:04;;;;;;;1.23;0.93;;;18.20;99.90;;;17.82;48.63;101610.91;4960707;27;108916;-50
2023/05/20 08:07:30;;;;;;;2.07;0.97;;;18.10;99.90;;;17.88;48.64;101610.56;4953805;27;97869;-52
2023/05/20 08:09:56;;;;;;;2.43;1.30;;;18.10;99.90;;;17.74;48.77;101607.75;4933003;27;329874;-50
2023/05/20 08:12:22;;;;;;;1.57;1.10;;;18.10;99.90;;;17.74;48.88;101613.06;4963982;27;97125;-47
2023/05/20 08:14:49;;;;;;;1.90;1.27;;;18.10;99.90;;;17.78;48.82;101609.31;4965383;27;244523;-53
2023/05/20 08:17:15;;;;;;;1.10;0.90;;;18.10;99.90;;;17.73;48.74;101611.34;4954210;27;220392;-50
2023/05/20 08:19:41;;;;;;;1.73;0.90;;;18.10;99.90;;;17.56;49.33;101609.50;4939478;27;223964;-50
2023/05/20 08:22:07;;;;;;;2.47;1.10;;;18.00;99.90;;;17.58;49.47;101614.75;4960341;27;104435;-49
2023/05/20 08:24:33;;;;;;;1.13;1.03;;;17.90;99.90;;;17.62;49.48;101608.31;4955380;27;98070;-51
2023/05/20 08:27:00;;;;;;;1.03;0.93;;;17.90;99.90;;;17.73;49.11;101611.34;4947540;27;98464;-52
2023/05/20 08:29:25;;;;;;;1.20;1.00;;;18.00;99.90;;;17.87;50.33;101603.50;4951695;27;99793;-49
2023/05/20 08:31:51;;;;;;;0.90;0.90;;;18.10;99.90;;;17.97;49.10;101601.25;4960041;27;103418;-51
2023/05/20 08:34:17;;;;;;;1.63;1.07;;;18.20;99.90;;;17.78;49.15;101606.63;4955126;27;98505;-53
2023/05/20 08:36:44;;;;;;;0.80;0.70;;;18.10;99.90;;;17.64;49.49;101596.63;4956543;27;97616;-52
2023/05/20 08:39:09;;;;;;;1.27;1.00;;;18.00;99.90;;;17.78;49.05;101601.28;4958175;27;99062;-46
2023/05/20 08:41:38;;;;;;;1.33;0.93;;;18.00;99.90;;;17.64;49.28;101606.44;4955984;27;124598;-56
2023/05/20 08:44:05;;;;;;;1.30;0.80;;;18.00;99.90;;;17.87;49.00;101608.84;4955040;27;102560;-54
2023/05/20 08:46:33;;;;;;;1.53;1.00;;;18.10;99.90;;;18.01;49.53;101609.00;4948092;27;98574;-55
2023/05/20 08:48:59;;;;;;;2.17;1.10;;;18.20;99.90;;;18.05;50.86;101607.88;4951005;27;103499;-53
2023/05/20 08:51:27;;;;;;;1.20;1.10;;;18.20;99.90;;;18.07;49.46;101606.00;4952415;27;99151;-55
2023/05/20 08:53:53;;;;;;;0.83;0.70;;;18.20;99.90;;;17.89;48.88;101593.59;4950726;27;97705;-56
2023/05/20 08:56:20;;;;;;;1.27;1.07;;;18.20;99.90;;;17.90;49.05;101598.00;4953431;27;115038;-54
2023/05/20 08:58:46;;;;;;;1.40;0.83;;;18.20;99.90;;;17.84;48.98;101585.84;4947600;27;97539;-55
2023/05/20 09:01:12;;;;;;;1.53;1.20;;;18.10;99.90;;;17.84;49.00;101593.00;4953915;27;99011;-52
2023/05/20 09:03:38;;;;;;;2.70;1.40;;;18.20;99.90;;;17.95;49.30;101595.13;4945530;27;115413;-54
2023/05/20 09:06:08;;;;;;;2.47;1.30;;;18.20;99.90;;;18.02;49.24;101597.38;4955657;27;98938;-55
2023/05/20 09:08:34;;;;;;;1.37;1.00;;;18.20;99.90;;;18.13;49.58;101583.47;4955257;27;99414;-55
2023/05/20 09:11:01;;;;;;;1.43;0.77;;;18.30;99.90;;;18.10;48.63;101592.53;4952462;27;99068;-54
2023/05/20 09:13:30;;;;;;;1.10;1.00;;;18.30;99.90;;;18.14;48.68;101590.53;4951451;27;98045;-54
2023/05/20 09:15:55;;;;;;;2.13;1.37;;;18.30;99.90;;;18.17;49.53;101594.84;4951520;27;97567;-54
2023/05/20 09:18:21;;;;;;;0.87;0.80;;;18.30;99.90;;;18.00;48.78;101593.94;4953742;27;97711;-57
2023/05/20 09:20:51;;;;;;;1.60;0.80;;;18.30;99.90;;;17.87;48.79;101598.16;4949746;27;99300;-51
2023/05/20 09:23:21;;;;;;;3.03;1.43;;;18.20;99.90;;;18.04;48.62;101605.31;4951789;27;97482;-54
2023/05/20 09:25:50;;;;;;;4.30;1.80;;;18.20;99.90;;;18.06;49.76;101596.28;4950329;27;97753;-48
2023/05/20 09:28:19;;;;;;;1.20;0.83;;;18.30;99.90;;;17.99;48.99;101597.53;4949501;27;97521;-56
2023/05/20 09:30:48;;;;;;;2.90;1.53;;;18.20;99.90;;;18.06;48.92;101598.94;4949269;27;98586;-56
2023/05/20 09:33:13;;;;;;;2.23;1.30;;;18.30;99.90;;;17.95;48.92;101598.66;4955939;27;130565;-50
2023/05/20 09:35:40;;;;;;;2.97;0.87;;;18.20;99.90;;;17.95;48.85;101595.13;4949787;27;115370;-56
2023/05/20 09:38:07;;;;;;;1.37;0.77;;;18.20;99.90;;;18.00;49.08;101588.59;4952853;27;98026;-58
2023/05/20 09:40:32;;;;;;;2.70;0.77;;;18.20;99.90;;;17.83;49.53;101580.59;4947092;27;97862;-54
2023/05/20 09:43:04;;;;;;;1.50;1.23;;;18.20;99.90;;;18.00;51.11;101583.25;4953287;27;99600;-52
2023/05/20 09:45:30;;;;;;;3.07;1.30;;;18.20;99.90;;;18.01;49.24;101579.63;4953221;27;98044;-55
2023/05/20 09:47:56;;;;;;;2.27;1.17;;;18.20;99.90;;;18.12;49.93;101577.28;4951830;27;97992;-52
2023/05/20 09:50:24;;;;;;;1.80;1.20;;;18.30;99.90;;;17.95;49.55;101579.97;4951014;27;98666;-57
2023/05/20 09:52:51;;;;;;;1.00;0.97;;;18.30;99.90;;;18.02;48.88;101576.03;4950423;27;101777;-55
2023/05/20 09:55:19;;;;;;;1.33;0.93;;;18.30;99.90;;;18.05;48.99;101578.53;4945703;27;97763;-46
2023/05/20 09:57:46;;;;;;;1.90;0.90;;;18.30;99.90;;;18.06;49.55;101582.91;4949554;27;99122;-46
2023/05/20 10:00:16;;;;;;;1.57;0.83;;;18.30;99.90;;;17.77;49.81;101580.88;4946581;27;98041;-45
2023/05/20 10:02:45;;;;;;;0.73;0.73;;;18.20;99.90;;;17.72;49.79;101577.59;4945597;27;113474;-44
2023/05/20 10:05:36;;;;;;;2.57;1.00;;;18.10;99.90;;;18.07;49.75;101579.31;4955474;27;100381;-45
2023/05/20 10:08:31;;;;;;;2.13;0.97;;;18.30;99.90;;;17.79;49.57;101584.34;4950030;27;107401;-46